createdAt,value
2018-02-05T00:02:28.152Z,79.30
2018-02-05T00:04:55.667Z,79.20
2018-02-05T00:07:23.195Z,79.70
2018-02-05T00:09:50.738Z,79.90
2018-02-05T00:12:18.280Z,80.20
2018-02-05T00:14:45.801Z,80.50
2018-02-05T00:17:13.325Z,80.40
2018-02-05T00:19:40.851Z,80.40
2018-02-05T00:22:09.119Z,80.30
2018-02-05T00:24:37.413Z,80.00
2018-02-05T00:27:04.916Z,80.00
2018-02-05T00:29:32.482Z,80.00
2018-02-05T00:32:00.026Z,79.90
2018-02-05T00:34:27.524Z,80.00
2018-02-05T00:36:55.827Z,80.10
2018-02-05T00:39:23.364Z,80.10
2018-02-05T00:41:51.651Z,80.30
2018-02-05T00:44:19.167Z,80.20
2018-02-05T00:46:46.741Z,80.00
2018-02-05T00:49:15.017Z,79.90
2018-02-05T00:51:43.347Z,80.20
2018-02-05T00:56:43.821Z,80.00
2018-02-05T00:59:11.319Z,79.80
2018-02-05T01:01:38.874Z,80.00
2018-02-05T01:04:06.421Z,79.90
2018-02-05T01:06:34.725Z,79.80
2018-02-05T01:09:02.246Z,79.70
2018-02-05T01:11:30.513Z,79.50
2018-02-05T01:13:58.055Z,79.50
2018-02-05T01:16:25.585Z,79.40
2018-02-05T01:18:53.100Z,79.10
2018-02-05T01:21:21.394Z,79.10
2018-02-05T01:23:48.920Z,79.00
2018-02-05T01:26:16.495Z,79.00
2018-02-05T01:28:44.801Z,79.10
2018-02-05T01:31:12.327Z,79.00
2018-02-05T01:33:40.609Z,78.60
2018-02-05T01:36:08.908Z,78.80
2018-02-05T01:38:36.402Z,78.80
2018-02-05T01:41:03.921Z,78.70
2018-02-05T01:43:32.065Z,78.80
2018-02-05T01:46:00.327Z,78.70
2018-02-05T01:48:27.877Z,78.60
2018-02-05T01:50:55.371Z,78.50
2018-02-05T01:53:22.884Z,78.40
2018-02-05T01:55:50.404Z,78.20
2018-02-05T01:58:17.939Z,78.10
2018-02-05T02:00:45.454Z,78.50
2018-02-05T02:03:13.025Z,78.40
2018-02-05T02:05:40.537Z,78.60
2018-02-05T02:08:08.049Z,78.30
2018-02-05T02:10:35.584Z,78.60
2018-02-05T02:13:03.152Z,78.50
2018-02-05T02:15:30.698Z,79.00
2018-02-05T02:17:58.198Z,79.40
2018-02-05T02:20:26.467Z,79.40
2018-02-05T02:22:54.035Z,79.40
2018-02-05T02:25:21.541Z,79.50
2018-02-05T02:27:49.076Z,79.40
2018-02-05T02:30:16.610Z,79.30
2018-02-05T02:32:44.125Z,79.00
2018-02-05T02:35:11.627Z,78.50
2018-02-05T02:37:39.185Z,78.70
2018-02-05T02:40:06.676Z,78.40
2018-02-05T02:42:34.171Z,78.60
2018-02-05T02:45:01.695Z,78.50
2018-02-05T02:47:29.184Z,78.70
2018-02-05T02:49:56.723Z,78.70
2018-02-05T02:52:24.240Z,79.60
2018-02-05T02:54:51.774Z,78.80
2018-02-05T02:57:20.056Z,79.40
2018-02-05T02:59:48.336Z,78.50
2018-02-05T03:02:15.871Z,78.30
2018-02-05T03:04:43.383Z,78.60
2018-02-05T03:07:10.923Z,78.30
2018-02-05T03:09:38.435Z,78.50
2018-02-05T03:12:05.961Z,78.70
2018-02-05T03:14:33.464Z,78.50
2018-02-05T03:17:01.772Z,78.60
2018-02-05T03:19:29.279Z,78.40
2018-02-05T03:21:56.843Z,77.90
2018-02-05T03:24:24.339Z,78.00
2018-02-05T03:26:51.858Z,78.30
2018-02-05T03:29:19.377Z,78.90
2018-02-05T03:31:46.892Z,78.90
2018-02-05T03:34:15.181Z,79.20
2018-02-05T03:36:42.717Z,79.00
2018-02-05T03:39:11.029Z,78.90
2018-02-05T03:41:38.531Z,78.80
2018-02-05T03:44:06.057Z,78.60
2018-02-05T03:46:33.577Z,78.60
2018-02-05T03:49:01.864Z,78.70
2018-02-05T03:51:29.402Z,78.60
2018-02-05T03:53:57.680Z,78.60
2018-02-05T03:56:26.034Z,78.50
2018-02-05T03:58:53.528Z,78.40
2018-02-05T04:01:21.572Z,78.70
2018-02-05T04:03:49.892Z,78.80
2018-02-05T04:06:17.437Z,78.60
2018-02-05T04:08:44.958Z,79.00
2018-02-05T04:11:12.475Z,79.10
2018-02-05T04:13:39.989Z,78.90
2018-02-05T04:16:08.272Z,78.90
2018-02-05T04:18:36.548Z,78.60
2018-02-05T04:21:04.817Z,78.40
2018-02-05T04:23:33.130Z,78.50
2018-02-05T04:26:00.629Z,78.50
2018-02-05T04:28:28.145Z,79.20
2018-02-05T04:30:55.672Z,78.40
2018-02-05T04:33:23.964Z,78.50
2018-02-05T04:35:51.504Z,78.40
2018-02-05T04:38:19.031Z,78.60
2018-02-05T04:40:46.592Z,78.40
2018-02-05T04:43:14.105Z,78.50
2018-02-05T04:45:41.651Z,78.40
2018-02-05T04:48:09.148Z,78.50
2018-02-05T04:50:36.655Z,78.60
2018-02-05T04:53:04.217Z,78.60
2018-02-05T04:55:31.723Z,78.40
2018-02-05T04:57:59.238Z,78.60
2018-02-05T05:00:26.778Z,78.70
2018-02-05T05:02:55.069Z,78.70
2018-02-05T05:05:22.563Z,78.70
2018-02-05T05:07:50.128Z,78.90
2018-02-05T05:10:17.702Z,79.10
2018-02-05T05:12:45.195Z,79.00
2018-02-05T05:15:12.725Z,79.20
2018-02-05T05:17:40.215Z,79.20
2018-02-05T05:20:07.743Z,79.10
2018-02-05T05:22:35.255Z,79.10
2018-02-05T05:25:02.792Z,79.30
2018-02-05T05:27:30.319Z,79.10
2018-02-05T05:29:59.407Z,79.10
2018-02-05T05:32:28.458Z,79.20
2018-02-05T05:34:55.959Z,80.00
2018-02-05T05:37:23.494Z,79.10
2018-02-05T05:39:51.003Z,79.20
2018-02-05T05:42:18.523Z,79.30
2018-02-05T05:44:46.045Z,79.20
2018-02-05T05:47:13.584Z,79.50
2018-02-05T05:49:41.099Z,79.90
2018-02-05T05:52:08.632Z,80.10
2018-02-05T05:54:36.160Z,80.60
2018-02-05T05:57:03.725Z,80.80
2018-02-05T05:59:31.252Z,80.80
2018-02-05T06:01:59.521Z,81.00
2018-02-05T06:04:27.840Z,81.00
2018-02-05T06:06:55.371Z,81.00
2018-02-05T06:09:22.979Z,81.00
2018-02-05T06:11:50.505Z,80.90
2018-02-05T06:14:18.060Z,81.90
2018-02-05T06:16:45.607Z,81.20
2018-02-05T06:19:13.108Z,81.20
2018-02-05T06:21:40.647Z,81.20
2018-02-05T06:24:08.148Z,81.30
2018-02-05T06:26:35.667Z,81.30
2018-02-05T06:29:03.164Z,81.00
2018-02-05T06:31:30.678Z,80.70
2018-02-05T06:33:58.191Z,80.50
2018-02-05T06:36:26.456Z,79.90
2018-02-05T06:38:53.974Z,79.90
2018-02-05T06:41:21.492Z,79.70
2018-02-05T06:43:49.824Z,79.40
2018-02-05T06:46:17.320Z,79.40
2018-02-05T06:48:45.620Z,79.80
2018-02-05T06:51:25.078Z,79.60
2018-02-05T06:54:04.580Z,79.60
2018-02-05T06:56:32.867Z,79.10
2018-02-05T06:59:00.356Z,79.10
2018-02-05T07:01:27.935Z,78.90
2018-02-05T07:03:55.440Z,78.70
2018-02-05T07:06:22.957Z,78.60
2018-02-05T07:08:50.461Z,78.20
2018-02-05T07:11:18.006Z,78.30
2018-02-05T07:13:45.511Z,78.60
2018-02-05T07:16:13.067Z,78.60
2018-02-05T07:18:40.559Z,78.60
2018-02-05T07:21:08.844Z,78.80
2018-02-05T07:23:37.190Z,78.80
2018-02-05T07:26:04.709Z,78.80
2018-02-05T07:28:32.227Z,79.00
2018-02-05T07:31:00.507Z,78.80
2018-02-05T07:33:28.827Z,78.60
2018-02-05T07:35:56.316Z,78.60
2018-02-05T07:38:23.830Z,78.80
2018-02-05T07:40:51.364Z,78.60
2018-02-05T07:43:19.652Z,78.60
2018-02-05T07:45:47.165Z,78.40
2018-02-05T07:48:14.686Z,78.40
2018-02-05T07:50:42.217Z,78.30
2018-02-05T07:53:10.482Z,78.40
2018-02-05T07:55:38.018Z,78.40
2018-02-05T07:58:05.516Z,78.20
2018-02-05T08:00:33.050Z,78.10
2018-02-05T08:03:01.316Z,78.30
2018-02-05T08:05:28.838Z,78.30
2018-02-05T08:07:56.426Z,78.50
2018-02-05T08:10:23.904Z,77.80
2018-02-05T08:12:52.211Z,77.80
2018-02-05T08:15:19.775Z,77.80
2018-02-05T08:17:47.304Z,77.60
2018-02-05T08:20:14.851Z,77.50
2018-02-05T08:22:43.143Z,76.60
2018-02-05T08:25:10.667Z,76.50
2018-02-05T08:27:38.216Z,76.40
2018-02-05T08:30:05.733Z,76.40
2018-02-05T08:32:33.231Z,76.10
2018-02-05T08:35:00.784Z,75.80
2018-02-05T08:37:28.292Z,75.90
2018-02-05T08:39:55.810Z,76.00
2018-02-05T08:42:23.320Z,75.70
2018-02-05T08:44:50.837Z,75.50
2018-02-05T08:47:18.364Z,75.60
2018-02-05T08:49:45.888Z,75.40
2018-02-05T08:52:13.402Z,75.60
2018-02-05T08:54:40.916Z,75.60
2018-02-05T08:57:08.440Z,75.80
2018-02-05T08:59:36.716Z,75.70
2018-02-05T09:02:05.003Z,75.80
2018-02-05T09:04:32.505Z,75.80
2018-02-05T09:07:00.085Z,75.40
2018-02-05T09:09:27.577Z,74.90
2018-02-05T09:11:55.122Z,75.00
2018-02-05T09:14:23.410Z,74.60
2018-02-05T09:16:50.933Z,74.50
2018-02-05T09:19:18.455Z,73.70
2018-02-05T09:21:46.015Z,74.10
2018-02-05T09:24:13.523Z,73.70
2018-02-05T09:26:41.776Z,73.30
2018-02-05T09:29:09.311Z,74.00
2018-02-05T09:31:36.804Z,73.20
2018-02-05T09:34:05.121Z,72.50
2018-02-05T09:36:32.624Z,72.40
2018-02-05T09:39:01.676Z,72.10
2018-02-05T09:41:29.212Z,72.10
2018-02-05T09:43:56.705Z,72.10
2018-02-05T09:46:24.261Z,71.30
2018-02-05T09:48:51.766Z,71.10
2018-02-05T09:51:19.316Z,69.90
2018-02-05T09:53:46.823Z,70.00
2018-02-05T09:56:14.356Z,70.60
2018-02-05T09:58:41.854Z,68.50
2018-02-05T10:01:09.425Z,65.90
2018-02-05T10:03:36.945Z,65.50
2018-02-05T10:06:05.276Z,65.50
2018-02-05T10:08:32.799Z,66.10
2018-02-05T10:11:00.298Z,65.40
2018-02-05T10:13:27.849Z,65.20
2018-02-05T10:15:55.412Z,67.30
2018-02-05T10:18:22.916Z,65.30
2018-02-05T10:20:50.449Z,65.50
2018-02-05T10:23:18.729Z,64.60
2018-02-05T10:25:46.238Z,64.60
2018-02-05T10:28:13.776Z,62.80
2018-02-05T10:30:41.320Z,61.80
2018-02-05T10:33:08.857Z,62.40
2018-02-05T10:35:37.133Z,59.90
2018-02-05T10:38:05.423Z,59.50
2018-02-05T10:40:32.950Z,59.40
2018-02-05T10:43:01.249Z,59.30
2018-02-05T10:45:28.747Z,59.30
2018-02-05T10:47:56.279Z,58.60
2018-02-05T10:50:23.796Z,59.00
2018-02-05T10:52:52.128Z,58.70
2018-02-05T10:55:19.654Z,58.70
2018-02-05T10:57:47.146Z,57.00
2018-02-05T11:00:14.716Z,57.70
2018-02-05T11:02:42.310Z,57.40
2018-02-05T11:05:10.638Z,56.30
2018-02-05T11:07:38.172Z,56.30
2018-02-05T11:10:05.699Z,55.20
2018-02-05T11:12:33.960Z,54.50
2018-02-05T11:15:01.480Z,54.50
2018-02-05T11:17:29.013Z,55.10
2018-02-05T11:19:56.538Z,55.10
2018-02-05T11:22:24.119Z,54.00
2018-02-05T11:24:52.404Z,53.70
2018-02-05T11:27:19.928Z,53.60
2018-02-05T11:29:47.443Z,54.70
2018-02-05T11:32:15.007Z,54.60
2018-02-05T11:34:42.521Z,55.00
2018-02-05T11:37:10.836Z,53.60
2018-02-05T11:39:38.351Z,53.50
2018-02-05T11:42:06.614Z,51.40
2018-02-05T11:44:34.154Z,51.40
2018-02-05T11:47:01.656Z,52.80
2018-02-05T11:49:29.192Z,53.30
2018-02-05T11:51:57.466Z,49.30
2018-02-05T11:54:25.002Z,49.60
2018-02-05T11:56:52.514Z,50.40
2018-02-05T11:59:20.058Z,49.50
2018-02-05T12:01:48.337Z,48.90
2018-02-05T12:04:15.871Z,48.90
2018-02-05T12:06:44.172Z,46.40
2018-02-05T12:09:11.679Z,46.40
2018-02-05T12:11:39.237Z,47.10
2018-02-05T12:14:06.789Z,47.00
2018-02-05T12:16:34.320Z,46.40
2018-02-05T12:19:01.833Z,46.30
2018-02-05T12:21:30.136Z,46.90
2018-02-05T12:23:57.653Z,46.90
2018-02-05T12:26:25.218Z,46.70
2018-02-05T12:28:52.763Z,47.10
2018-02-05T12:31:20.268Z,48.60
2018-02-05T12:33:48.729Z,46.50
2018-02-05T12:36:17.011Z,46.30
2018-02-05T12:38:45.302Z,45.50
2018-02-05T12:41:12.820Z,45.50
2018-02-05T12:43:40.362Z,46.20
2018-02-05T12:46:07.868Z,45.30
2018-02-05T12:48:36.154Z,43.00
2018-02-05T12:51:03.673Z,43.00
2018-02-05T12:53:32.036Z,43.30
2018-02-05T12:55:59.542Z,43.30
2018-02-05T12:58:28.722Z,43.10
2018-02-05T13:00:57.047Z,40.50
2018-02-05T13:03:25.506Z,40.50
2018-02-05T13:05:58.775Z,39.90
2018-02-05T13:08:27.096Z,38.40
2018-02-05T13:10:54.624Z,38.30
2018-02-05T13:13:22.208Z,37.90
2018-02-05T13:15:49.732Z,37.80
2018-02-05T13:18:18.000Z,36.00
2018-02-05T13:20:46.309Z,35.30
2018-02-05T13:23:13.816Z,35.30
2018-02-05T13:25:41.333Z,35.70
2018-02-05T13:28:08.856Z,35.50
2018-02-05T13:30:37.126Z,35.60
2018-02-05T13:33:05.438Z,34.30
2018-02-05T13:35:32.944Z,34.30
2018-02-05T13:38:01.247Z,34.10
2018-02-05T13:40:28.763Z,34.10
2018-02-05T13:42:57.059Z,36.30
2018-02-05T13:45:25.371Z,35.40
2018-02-05T13:47:52.864Z,35.40
2018-02-05T13:50:20.420Z,33.40
2018-02-05T13:52:47.932Z,33.60
2018-02-05T13:55:15.461Z,33.90
2018-02-05T13:57:43.002Z,34.30
2018-02-05T14:00:10.545Z,35.40
2018-02-05T14:02:38.029Z,34.20
2018-02-05T14:05:05.588Z,34.00
2018-02-05T14:07:33.914Z,35.00
2018-02-05T14:10:02.336Z,34.90
2018-02-05T14:12:29.843Z,36.00
2018-02-05T14:14:57.431Z,35.80
2018-02-05T14:17:24.927Z,37.50
2018-02-05T14:19:53.214Z,39.40
2018-02-05T14:22:21.528Z,38.30
2018-02-05T14:24:49.069Z,38.20
2018-02-05T14:27:16.618Z,38.50
2018-02-05T14:29:44.151Z,39.20
2018-02-05T14:32:12.428Z,41.20
2018-02-05T14:34:40.699Z,41.80
2018-02-05T14:37:08.239Z,41.70
2018-02-05T14:39:35.789Z,41.80
2018-02-05T14:42:03.312Z,42.30
2018-02-05T14:44:30.823Z,42.50
2018-02-05T14:46:58.313Z,42.40
2018-02-05T14:49:25.841Z,43.00
2018-02-05T14:51:54.120Z,44.70
2018-02-05T14:54:21.643Z,44.20
2018-02-05T14:56:49.162Z,43.90
2018-02-05T14:59:16.704Z,44.30
2018-02-05T15:01:44.990Z,45.50
2018-02-05T15:04:13.286Z,45.30
2018-02-05T15:06:40.809Z,45.30
2018-02-05T15:09:09.072Z,45.60
2018-02-05T15:11:36.612Z,45.50
2018-02-05T15:14:04.103Z,45.90
2018-02-05T15:16:32.413Z,46.10
2018-02-05T15:18:59.911Z,46.10
2018-02-05T15:21:27.438Z,46.40
2018-02-05T15:23:54.929Z,47.00
2018-02-05T15:26:22.440Z,47.00
2018-02-05T15:28:49.968Z,46.50
2018-02-05T15:31:18.221Z,47.10
2018-02-05T15:33:45.788Z,47.00
2018-02-05T15:36:13.285Z,47.10
2018-02-05T15:38:40.829Z,46.80
2018-02-05T15:41:08.347Z,46.80
2018-02-05T15:43:35.897Z,47.10
2018-02-05T15:46:04.216Z,47.80
2018-02-05T15:48:32.485Z,47.30
2018-02-05T15:51:00.775Z,47.40
2018-02-05T15:53:28.296Z,47.30
2018-02-05T15:55:56.616Z,47.00
2018-02-05T15:58:24.119Z,46.90
2018-02-05T16:00:52.440Z,47.50
2018-02-05T16:03:19.964Z,47.40
2018-02-05T16:05:47.567Z,47.50
2018-02-05T16:08:15.087Z,47.90
2018-02-05T16:10:42.607Z,48.30
2018-02-05T16:13:10.124Z,49.00
2018-02-05T16:15:38.378Z,49.40
2018-02-05T16:18:05.912Z,49.40
2018-02-05T16:20:33.437Z,49.70
2018-02-05T16:23:00.994Z,49.80
2018-02-05T16:25:28.560Z,50.20
2018-02-05T16:27:56.082Z,50.70
2018-02-05T16:30:24.397Z,51.30
2018-02-05T16:32:51.906Z,51.30
2018-02-05T16:35:19.451Z,51.50
2018-02-05T16:37:46.972Z,51.60
2018-02-05T16:40:14.533Z,51.60
2018-02-05T16:42:42.077Z,51.80
2018-02-05T16:45:09.593Z,51.80
2018-02-05T16:47:37.145Z,52.20
2018-02-05T16:50:04.675Z,52.30
2018-02-05T16:52:32.289Z,52.70
2018-02-05T16:54:59.802Z,52.90
2018-02-05T16:57:27.344Z,53.20
2018-02-05T16:59:54.857Z,53.60
2018-02-05T17:02:23.190Z,54.00
2018-02-05T17:04:50.710Z,54.00
2018-02-05T17:07:18.240Z,54.10
2018-02-05T17:09:46.536Z,54.60
2018-02-05T17:12:14.060Z,54.50
2018-02-05T17:14:41.579Z,54.50
2018-02-05T17:17:09.104Z,54.60
2018-02-05T17:19:37.411Z,54.90
2018-02-05T17:22:04.938Z,54.90
2018-02-05T17:24:32.527Z,55.10
2018-02-05T17:27:00.184Z,55.00
2018-02-05T17:29:27.705Z,55.20
2018-02-05T17:31:55.280Z,55.40
2018-02-05T17:34:22.824Z,55.50
2018-02-05T17:36:51.139Z,55.90
2018-02-05T17:39:18.648Z,55.80
2018-02-05T17:41:46.966Z,55.90
2018-02-05T17:44:14.482Z,55.90
2018-02-05T17:46:42.742Z,56.10
2018-02-05T17:49:11.865Z,56.10
2018-02-05T17:51:40.131Z,56.90
2018-02-05T17:54:07.663Z,56.20
2018-02-05T17:56:35.203Z,56.40
2018-02-05T17:59:02.721Z,56.80
2018-02-05T18:01:30.262Z,56.70
2018-02-05T18:03:58.573Z,57.40
2018-02-05T18:06:26.101Z,57.30
2018-02-05T18:08:54.406Z,57.80
2018-02-05T18:11:21.970Z,57.80
2018-02-05T18:13:49.547Z,58.00
2018-02-05T18:16:17.031Z,57.90
2018-02-05T18:18:44.599Z,58.20
2018-02-05T18:21:12.892Z,58.30
2018-02-05T18:23:41.208Z,58.60
2018-02-05T18:26:08.717Z,58.50
2018-02-05T18:28:37.057Z,58.80
2018-02-05T18:31:04.586Z,58.70
2018-02-05T18:33:32.132Z,58.80
2018-02-05T18:35:59.724Z,59.00
2018-02-05T18:38:27.270Z,59.10
2018-02-05T18:40:54.823Z,59.20
2018-02-05T18:43:22.338Z,59.40
2018-02-05T18:45:50.681Z,59.70
2018-02-05T18:48:18.206Z,59.70
2018-02-05T18:50:45.776Z,59.70
2018-02-05T18:53:13.301Z,59.80
2018-02-05T18:55:41.643Z,59.90
2018-02-05T18:58:09.175Z,59.90
2018-02-05T19:00:48.768Z,60.10
2018-02-05T19:03:17.096Z,60.70
2018-02-05T19:05:44.624Z,60.60
2018-02-05T19:08:12.174Z,60.70
2018-02-05T19:10:40.467Z,60.80
2018-02-05T19:13:08.012Z,60.70
2018-02-05T19:15:35.569Z,61.00
2018-02-05T19:18:03.131Z,61.20
2018-02-05T19:20:30.690Z,61.50
2018-02-05T19:22:58.257Z,61.50
2018-02-05T19:25:25.792Z,61.60
2018-02-05T19:27:53.332Z,61.80
2018-02-05T19:30:20.843Z,61.90
2018-02-05T19:32:48.399Z,62.30
2018-02-05T19:35:15.990Z,62.50
2018-02-05T19:37:43.565Z,62.30
2018-02-05T19:40:11.099Z,62.60
2018-02-05T19:42:38.658Z,62.60
2018-02-05T19:45:06.204Z,62.50
2018-02-05T19:47:33.744Z,63.40
2018-02-05T19:50:01.284Z,62.90
2018-02-05T19:52:28.856Z,63.20
2018-02-05T19:54:56.411Z,63.30
2018-02-05T19:57:23.926Z,63.00
2018-02-05T19:59:51.448Z,63.00
2018-02-05T20:02:18.999Z,62.80
2018-02-05T20:04:46.609Z,63.10
2018-02-05T20:07:14.132Z,62.90
2018-02-05T20:09:41.698Z,62.90
2018-02-05T20:12:09.232Z,62.70
2018-02-05T20:14:36.763Z,62.70
2018-02-05T20:17:05.116Z,62.50
2018-02-05T20:19:32.676Z,62.50
2018-02-05T20:22:00.225Z,62.60
2018-02-05T20:24:27.771Z,62.70
2018-02-05T20:26:55.308Z,62.60
2018-02-05T20:29:22.882Z,62.60
2018-02-05T20:31:50.406Z,62.80
2018-02-05T20:34:17.953Z,62.60
2018-02-05T20:36:45.477Z,62.50
2018-02-05T20:39:13.032Z,62.60
2018-02-05T20:41:40.569Z,62.80
2018-02-05T20:44:08.156Z,62.70
2018-02-05T20:46:35.986Z,62.70
2018-02-05T20:49:03.540Z,62.80
2018-02-05T20:51:31.097Z,62.90
2018-02-05T20:53:58.661Z,62.90
2018-02-05T20:56:26.208Z,63.00
2018-02-05T20:58:53.767Z,62.80
2018-02-05T21:01:21.308Z,62.60
2018-02-05T21:03:48.833Z,62.80
2018-02-05T21:06:17.177Z,62.80
2018-02-05T21:08:44.723Z,62.80
2018-02-05T21:11:12.247Z,62.90
2018-02-05T21:13:39.851Z,63.00
2018-02-05T21:16:07.363Z,62.90
2018-02-05T21:18:35.685Z,62.60
2018-02-05T21:21:03.232Z,62.60
2018-02-05T21:23:30.757Z,62.50
2018-02-05T21:25:58.286Z,62.60
2018-02-05T21:28:26.617Z,62.60
2018-02-05T21:30:54.125Z,62.50
2018-02-05T21:33:21.638Z,62.60
2018-02-05T21:35:49.217Z,62.60
2018-02-05T21:38:16.747Z,62.90
2018-02-05T21:40:44.297Z,62.60
2018-02-05T21:43:11.833Z,62.50
2018-02-05T21:45:40.145Z,62.50
2018-02-05T21:48:07.669Z,62.40
2018-02-05T21:50:35.997Z,62.20
2018-02-05T21:53:03.527Z,62.20
2018-02-05T21:55:31.067Z,62.20
2018-02-05T21:57:58.588Z,62.20
2018-02-05T22:00:26.124Z,62.40
2018-02-05T22:02:53.660Z,62.20
2018-02-05T22:05:21.164Z,63.00
2018-02-05T22:07:48.723Z,62.20
2018-02-05T22:10:16.245Z,62.30
2018-02-05T22:12:43.772Z,62.10
2018-02-05T22:15:11.303Z,61.80
2018-02-05T22:17:38.806Z,61.80
2018-02-05T22:20:06.399Z,61.80
2018-02-05T22:22:33.900Z,61.90
2018-02-05T22:25:01.472Z,62.00
2018-02-05T22:27:28.997Z,61.90
2018-02-05T22:29:56.547Z,62.10
2018-02-05T22:32:24.067Z,61.90
2018-02-05T22:34:51.627Z,62.00
2018-02-05T22:37:19.143Z,61.90
2018-02-05T22:39:47.417Z,62.10
2018-02-05T22:42:14.952Z,62.00
2018-02-05T22:44:42.453Z,62.10
2018-02-05T22:47:09.979Z,62.00
2018-02-05T22:49:38.251Z,62.80
2018-02-05T22:52:06.552Z,62.70
2018-02-05T22:54:34.111Z,62.80
2018-02-05T22:57:01.686Z,62.70
2018-02-05T22:59:29.223Z,62.60
2018-02-05T23:01:56.749Z,62.70
2018-02-05T23:04:24.315Z,62.70
2018-02-05T23:06:51.832Z,62.50
2018-02-05T23:09:19.385Z,62.30
2018-02-05T23:11:46.888Z,62.40
2018-02-05T23:14:14.435Z,62.40
2018-02-05T23:16:41.973Z,62.50
2018-02-05T23:19:09.534Z,62.10
2018-02-05T23:21:37.089Z,62.10
2018-02-05T23:24:04.627Z,62.20
2018-02-05T23:26:32.160Z,62.30
2018-02-05T23:28:59.688Z,62.40
2018-02-05T23:31:27.215Z,62.60
2018-02-05T23:33:54.710Z,62.60
2018-02-05T23:36:22.217Z,62.50
2018-02-05T23:38:49.777Z,62.30
2018-02-05T23:41:17.289Z,62.10
2018-02-05T23:43:45.595Z,62.20
2018-02-05T23:46:13.109Z,62.10
2018-02-05T23:48:40.655Z,62.00
2018-02-05T23:51:08.159Z,62.10
2018-02-05T23:53:35.685Z,62.10
2018-02-05T23:56:03.192Z,62.10
2018-02-05T23:58:31.692Z,62.20
